Time;durP1;ratioP1;P1;durP2;ratioP2;P2;SDS_P1;SDS_P2;PMS_P1;PMS_P2;Temp;Humidity;BMP_temperature;BMP_pressure;BME280_temperature;BME280_humidity;BME280_pressure;Samples;Min_cycle;Max_cycle;Signal;HPM_P1;HPM_P2
2022/03/10 00:02:08;;;;;;;2.40;2.30;;;17.60;61.70;;;;;;5055418;28;20037;-17
2022/03/10 00:04:37;;;;;;;2.95;2.50;;;17.60;61.80;;;;;;5055456;28;20084;-17
2022/03/10 00:07:03;;;;;;;2.40;2.20;;;17.60;61.70;;;;;;5055506;28;20029;-17
2022/03/10 00:09:32;;;;;;;2.67;2.47;;;17.60;61.90;;;;;;5055526;28;20577;-17
2022/03/10 00:12:01;;;;;;;2.50;2.30;;;17.50;62.00;;;;;;5055230;28;20370;-17
2022/03/10 00:14:26;;;;;;;2.28;2.17;;;17.50;62.00;;;;;;5074793;28;20077;-17
2022/03/10 00:16:52;;;;;;;2.35;2.25;;;17.50;62.00;;;;;;5095677;28;20027;-17
2022/03/10 00:19:18;;;;;;;2.70;2.00;;;17.50;62.10;;;;;;5095743;28;20443;-17
2022/03/10 00:21:44;;;;;;;2.40;2.20;;;17.50;62.10;;;;;;5077386;28;20032;-17
2022/03/10 00:24:10;;;;;;;2.20;2.10;;;17.50;62.20;;;;;;5075470;28;20134;-17
2022/03/10 00:26:37;;;;;;;2.30;2.20;;;17.50;62.10;;;;;;5075439;28;20143;-17
2022/03/10 00:29:03;;;;;;;2.15;2.05;;;17.50;62.10;;;;;;5064554;28;20421;-17
2022/03/10 00:31:28;;;;;;;2.15;2.05;;;17.40;62.30;;;;;;5058750;28;20119;-17
2022/03/10 00:33:54;;;;;;;2.30;2.20;;;17.40;63.00;;;;;;5058796;28;20061;-17
2022/03/10 00:36:20;;;;;;;2.10;1.98;;;17.40;62.30;;;;;;5058984;28;20561;-17
2022/03/10 00:38:45;;;;;;;2.03;1.92;;;17.50;62.10;;;;;;5058880;28;20028;-17
2022/03/10 00:41:11;;;;;;;1.70;1.60;;;17.30;62.40;;;;;;5058907;28;20502;-17
2022/03/10 00:43:36;;;;;;;2.22;2.13;;;17.40;62.40;;;;;;5058826;28;20060;-17
2022/03/10 00:46:02;;;;;;;1.80;1.70;;;17.40;62.10;;;;;;5082563;28;20033;-17
2022/03/10 00:48:28;;;;;;;1.70;1.60;;;17.50;62.10;;;;;;5059492;28;20450;-17
2022/03/10 00:50:53;;;;;;;1.90;1.80;;;17.40;62.30;;;;;;5059114;28;20021;-17
2022/03/10 00:53:19;;;;;;;2.00;1.90;;;17.50;62.10;;;;;;5059299;28;20493;-17
2022/03/10 00:55:44;;;;;;;1.77;1.67;;;17.40;62.20;;;;;;5059253;28;20879;-17
2022/03/10 00:58:10;;;;;;;1.92;1.83;;;17.40;62.10;;;;;;5059267;28;20017;-17
2022/03/10 01:00:36;;;;;;;1.70;1.60;;;17.40;62.30;;;;;;5059210;28;20033;-17
2022/03/10 01:03:01;;;;;;;1.92;1.83;;;17.40;62.30;;;;;;5059087;28;20021;-17
2022/03/10 01:05:27;;;;;;;1.50;1.40;;;17.40;62.30;;;;;;5057680;28;20056;-17
2022/03/10 01:07:53;;;;;;;1.60;1.50;;;17.40;62.30;;;;;;5059057;28;20048;-17
2022/03/10 01:10:18;;;;;;;2.00;1.77;;;17.30;62.30;;;;;;5059105;28;20075;-17
2022/03/10 01:12:45;;;;;;;1.75;1.65;;;17.30;62.40;;;;;;5058966;28;20028;-17
2022/03/10 01:15:13;;;;;;;1.90;1.50;;;17.40;62.30;;;;;;5090703;28;20028;-17
2022/03/10 01:17:39;;;;;;;1.60;1.50;;;17.30;62.30;;;;;;5099294;28;20031;-17
2022/03/10 01:20:05;;;;;;;1.60;1.50;;;17.40;62.30;;;;;;5074189;28;20045;-17
2022/03/10 01:22:30;;;;;;;1.67;1.58;;;17.40;62.20;;;;;;5077559;28;20048;-17
2022/03/10 01:24:56;;;;;;;1.60;1.50;;;17.30;62.30;;;;;;5073249;28;20032;-17
2022/03/10 01:27:21;;;;;;;1.90;1.80;;;17.30;62.40;;;;;;5058759;28;20049;-17
2022/03/10 01:29:47;;;;;;;1.25;1.25;;;17.40;62.20;;;;;;5058612;28;20108;-17
2022/03/10 01:32:12;;;;;;;1.70;1.60;;;17.30;62.30;;;;;;5058513;28;20028;-17
2022/03/10 01:34:38;;;;;;;1.60;1.50;;;17.30;62.30;;;;;;5058825;28;20029;-17
2022/03/10 01:37:04;;;;;;;1.48;1.38;;;17.30;62.40;;;;;;5058278;28;20052;-17
2022/03/10 01:39:32;;;;;;;1.88;1.50;;;17.30;62.30;;;;;;5058461;28;20455;-17
2022/03/10 01:41:58;;;;;;;1.48;1.38;;;17.30;62.30;;;;;;5057864;28;20021;-17
2022/03/10 01:44:24;;;;;;;1.55;1.48;;;17.30;62.40;;;;;;5063036;28;20029;-17
2022/03/10 01:46:50;;;;;;;1.42;1.33;;;17.20;62.50;;;;;;5098598;28;20126;-17
2022/03/10 01:49:15;;;;;;;1.25;1.15;;;17.30;62.50;;;;;;5098738;28;20036;-17
2022/03/10 01:51:41;;;;;;;1.48;1.38;;;17.30;62.30;;;;;;5069104;28;20037;-17
2022/03/10 01:54:07;;;;;;;1.55;1.45;;;17.30;62.40;;;;;;5057018;28;20021;-17
2022/03/10 01:56:33;;;;;;;1.48;1.38;;;17.30;62.40;;;;;;5058189;28;20037;-17
2022/03/10 01:58:58;;;;;;;1.23;1.13;;;17.30;62.40;;;;;;5056965;28;20028;-17
2022/03/10 02:01:24;;;;;;;1.67;1.48;;;17.30;62.50;;;;;;5056897;28;20033;-17
2022/03/10 02:03:50;;;;;;;1.42;1.33;;;17.30;62.60;;;;;;5058321;28;20032;-17
2022/03/10 02:06:15;;;;;;;1.40;1.30;;;17.20;62.70;;;;;;5058023;28;20025;-17
2022/03/10 02:11:25;;;;;;;1.60;1.50;;;17.20;62.80;;;;;;5057465;28;20039;-17
2022/03/10 02:13:51;;;;;;;1.08;1.08;;;17.20;62.80;;;;;;5049607;28;20024;-17
2022/03/10 02:19:01;;;;;;;2.03;1.00;;;17.20;63.00;;;;;;5097853;28;20177;-17
2022/03/10 02:21:27;;;;;;;1.00;1.00;;;17.20;62.90;;;;;;5082515;28;20063;-17
2022/03/10 02:23:53;;;;;;;1.58;1.23;;;17.20;62.80;;;;;;5057431;28;20375;-17
2022/03/10 02:26:19;;;;;;;1.23;1.20;;;17.20;62.90;;;;;;5072348;28;20021;-17
2022/03/10 02:28:44;;;;;;;1.08;1.08;;;17.10;63.10;;;;;;5057720;28;20622;-17
2022/03/10 02:31:10;;;;;;;1.00;1.00;;;17.20;63.00;;;;;;5057563;28;20031;-17
2022/03/10 02:33:36;;;;;;;1.10;1.10;;;17.20;63.10;;;;;;5057570;28;20025;-17
2022/03/10 02:36:02;;;;;;;1.20;1.10;;;17.20;63.10;;;;;;5057318;28;20100;-17
2022/03/10 02:38:28;;;;;;;1.00;1.00;;;17.10;63.00;;;;;;5057260;28;20021;-17
2022/03/10 02:40:53;;;;;;;1.45;1.35;;;17.10;63.00;;;;;;5057496;28;20029;-17
2022/03/10 02:43:19;;;;;;;1.00;0.98;;;17.10;63.00;;;;;;5057342;28;20032;-17
2022/03/10 02:45:45;;;;;;;1.20;1.20;;;17.10;63.00;;;;;;5084504;28;20085;-17
2022/03/10 02:48:15;;;;;;;0.93;0.93;;;17.10;63.00;;;;;;5059743;28;20044;-17
2022/03/10 02:50:41;;;;;;;1.08;1.08;;;17.20;62.80;;;;;;5057158;28;20051;-17
2022/03/10 02:53:07;;;;;;;1.00;0.85;;;17.20;62.80;;;;;;5056285;28;20085;-17
2022/03/10 02:55:33;;;;;;;1.10;1.10;;;17.10;62.80;;;;;;5057122;28;20048;-17
2022/03/10 02:57:58;;;;;;;0.85;0.85;;;17.10;62.90;;;;;;5057267;28;20024;-17
2022/03/10 03:00:24;;;;;;;1.15;1.00;;;17.10;62.90;;;;;;5057107;28;20112;-17
2022/03/10 03:02:49;;;;;;;1.02;1.00;;;17.10;63.00;;;;;;5055553;28;20037;-17
2022/03/10 03:05:15;;;;;;;1.15;1.05;;;17.00;63.00;;;;;;5056770;28;20021;-17
2022/03/10 03:07:41;;;;;;;0.90;0.90;;;17.10;63.00;;;;;;5057041;28;20418;-17
2022/03/10 03:10:07;;;;;;;1.13;1.10;;;17.00;63.10;;;;;;5056633;28;20048;-17
2022/03/10 03:12:33;;;;;;;1.05;0.95;;;17.10;63.10;;;;;;5056986;28;20033;-17
2022/03/10 03:14:59;;;;;;;0.90;0.90;;;17.00;63.00;;;;;;5085044;28;20035;-17
2022/03/10 03:17:25;;;;;;;0.70;0.70;;;17.10;63.10;;;;;;5081843;28;20107;-17
2022/03/10 03:19:51;;;;;;;0.90;0.85;;;17.00;63.10;;;;;;5056661;28;20126;-17
2022/03/10 03:22:17;;;;;;;0.80;0.80;;;17.00;63.10;;;;;;5068804;28;20033;-17
2022/03/10 03:24:44;;;;;;;0.80;0.80;;;17.00;63.10;;;;;;5056769;28;20037;-17
2022/03/10 03:27:13;;;;;;;0.80;0.80;;;17.00;63.10;;;;;;5056902;28;20037;-17
2022/03/10 03:29:39;;;;;;;0.77;0.77;;;17.00;63.90;;;;;;5056341;28;20586;-17
2022/03/10 03:32:05;;;;;;;0.93;0.93;;;17.00;63.00;;;;;;5056584;28;20490;-17
2022/03/10 03:34:31;;;;;;;0.70;0.70;;;17.10;63.20;;;;;;5056590;28;20425;-17
2022/03/10 03:36:56;;;;;;;1.08;1.08;;;17.00;63.20;;;;;;5056247;28;20029;-17
2022/03/10 03:39:22;;;;;;;0.90;0.90;;;17.00;63.20;;;;;;5056553;28;20471;-17
2022/03/10 03:41:47;;;;;;;0.93;0.93;;;17.00;63.20;;;;;;5056145;28;20029;-17
2022/03/10 03:44:13;;;;;;;0.90;0.90;;;17.00;63.20;;;;;;5058160;28;20033;-17
2022/03/10 03:46:39;;;;;;;0.90;0.90;;;17.00;63.20;;;;;;5096792;28;20024;-17
2022/03/10 03:49:04;;;;;;;0.70;0.70;;;17.00;63.20;;;;;;5073846;28;20033;-17
2022/03/10 03:51:31;;;;;;;0.82;0.82;;;17.00;63.20;;;;;;5056183;28;20025;-17
2022/03/10 03:53:57;;;;;;;1.13;1.10;;;17.00;63.20;;;;;;5056386;28;20484;-17
2022/03/10 03:56:22;;;;;;;0.68;0.68;;;17.10;63.30;;;;;;5056443;28;20425;-17
2022/03/10 03:58:48;;;;;;;0.80;0.80;;;17.00;63.20;;;;;;5056388;28;20036;-17
2022/03/10 04:01:13;;;;;;;0.80;0.80;;;17.00;63.30;;;;;;5056538;28;20029;-17
2022/03/10 04:03:39;;;;;;;0.75;0.75;;;17.00;63.30;;;;;;5056375;28;20033;-17
2022/03/10 04:06:05;;;;;;;1.00;0.85;;;17.00;63.30;;;;;;5059903;28;20025;-17
2022/03/10 04:08:30;;;;;;;0.65;0.65;;;17.00;63.20;;;;;;5059640;28;20029;-17
2022/03/10 04:10:56;;;;;;;0.80;0.80;;;17.00;63.10;;;;;;5059613;28;20029;-17
2022/03/10 04:13:22;;;;;;;0.90;0.90;;;17.00;63.20;;;;;;5061568;28;20040;-17
2022/03/10 04:15:52;;;;;;;0.80;0.80;;;17.00;63.20;;;;;;5100536;28;20481;-17
2022/03/10 04:18:17;;;;;;;0.73;0.73;;;17.00;63.20;;;;;;5086946;28;20029;-17
2022/03/10 04:20:46;;;;;;;0.93;0.93;;;17.00;63.20;;;;;;5064105;28;20053;-17
2022/03/10 04:23:12;;;;;;;0.80;0.80;;;17.00;63.30;;;;;;5078377;28;20056;-17
2022/03/10 04:25:38;;;;;;;1.10;0.77;;;17.00;63.20;;;;;;5065763;28;20078;-17
2022/03/10 04:28:04;;;;;;;0.60;0.60;;;17.00;63.20;;;;;;5059890;28;20029;-17
2022/03/10 04:30:32;;;;;;;0.80;0.80;;;17.00;63.20;;;;;;5059769;28;20029;-17
2022/03/10 04:32:58;;;;;;;0.60;0.60;;;17.00;63.20;;;;;;5059588;28;20029;-17
2022/03/10 04:35:24;;;;;;;1.10;0.77;;;16.90;63.20;;;;;;5059408;28;20832;-17
2022/03/10 04:37:50;;;;;;;0.68;0.68;;;16.90;63.30;;;;;;5059650;28;20021;-17
2022/03/10 04:40:16;;;;;;;0.50;0.50;;;16.90;63.30;;;;;;5059694;28;20012;-17
2022/03/10 04:42:42;;;;;;;0.80;0.80;;;17.00;63.20;;;;;;5058680;28;20032;-17
2022/03/10 04:45:08;;;;;;;0.80;0.80;;;16.90;63.10;;;;;;5076453;28;20488;-17
2022/03/10 04:47:35;;;;;;;0.68;0.65;;;16.90;63.20;;;;;;5093179;28;20139;-17
2022/03/10 04:50:01;;;;;;;0.73;0.73;;;16.90;63.10;;;;;;5059455;28;20017;-17
2022/03/10 04:52:27;;;;;;;0.60;0.60;;;16.90;63.30;;;;;;5059386;28;20036;-17
2022/03/10 04:54:53;;;;;;;0.80;0.80;;;16.90;63.20;;;;;;5059350;28;20029;-17
2022/03/10 04:57:19;;;;;;;0.75;0.75;;;16.90;63.30;;;;;;5059535;28;20078;-17
2022/03/10 04:59:44;;;;;;;0.70;0.70;;;16.90;63.30;;;;;;5059257;28;20413;-17
2022/03/10 05:02:10;;;;;;;0.65;0.63;;;16.90;63.40;;;;;;5059267;28;20060;-17
2022/03/10 05:04:36;;;;;;;0.63;0.63;;;16.90;63.40;;;;;;5058870;28;20382;-17
2022/03/10 05:07:01;;;;;;;0.60;0.60;;;16.90;63.40;;;;;;5058866;28;20033;-17
2022/03/10 05:09:27;;;;;;;0.60;0.60;;;16.90;63.30;;;;;;5059019;28;20033;-17
2022/03/10 05:11:52;;;;;;;0.60;0.60;;;16.90;63.30;;;;;;5058429;28;20569;-17
2022/03/10 05:14:18;;;;;;;0.60;0.60;;;16.90;63.30;;;;;;5058764;28;20603;-17
2022/03/10 05:16:44;;;;;;;0.77;0.75;;;16.90;63.30;;;;;;5057822;28;20025;-17
2022/03/10 05:19:09;;;;;;;0.80;0.80;;;16.90;63.20;;;;;;5058959;28;20117;-17
2022/03/10 05:21:36;;;;;;;0.50;0.50;;;16.90;63.30;;;;;;5067893;28;20578;-17
2022/03/10 05:24:03;;;;;;;0.70;0.70;;;16.90;63.40;;;;;;5058979;28;20033;-17
2022/03/10 05:26:28;;;;;;;0.60;0.60;;;16.90;63.40;;;;;;5058549;28;20033;-17
2022/03/10 05:28:54;;;;;;;0.63;0.63;;;16.90;63.40;;;;;;5058707;28;20021;-17
2022/03/10 05:31:19;;;;;;;0.50;0.50;;;16.90;63.40;;;;;;5057295;28;20116;-17
2022/03/10 05:33:45;;;;;;;0.63;0.60;;;16.90;63.40;;;;;;5058911;28;20081;-17
2022/03/10 05:36:10;;;;;;;0.50;0.50;;;16.80;63.30;;;;;;5058503;28;20033;-17
2022/03/10 05:38:36;;;;;;;0.70;0.70;;;16.80;63.40;;;;;;5058509;28;20017;-17
2022/03/10 05:41:03;;;;;;;0.50;0.50;;;16.80;63.40;;;;;;5058589;28;20024;-17
2022/03/10 05:43:29;;;;;;;0.68;0.68;;;16.90;63.40;;;;;;5058746;28;20021;-17
2022/03/10 05:45:54;;;;;;;1.02;0.90;;;16.90;63.40;;;;;;5087867;28;20038;-17
2022/03/10 05:48:20;;;;;;;0.77;0.60;;;16.90;63.40;;;;;;5098635;28;20048;-17
2022/03/10 05:50:46;;;;;;;0.43;0.43;;;16.90;63.90;;;;;;5066648;28;20039;-17
2022/03/10 05:53:11;;;;;;;0.70;0.70;;;16.80;63.30;;;;;;5069878;28;20017;-17
2022/03/10 05:55:37;;;;;;;0.60;0.60;;;16.80;63.40;;;;;;5058129;28;20024;-17
2022/03/10 05:58:04;;;;;;;0.55;0.55;;;16.80;63.40;;;;;;5068836;28;20038;-17
2022/03/10 06:00:29;;;;;;;0.52;0.50;;;16.80;64.20;;;;;;5077498;28;20032;-17
2022/03/10 06:02:55;;;;;;;0.52;0.50;;;16.80;63.40;;;;;;5059202;28;20029;-17
2022/03/10 06:05:21;;;;;;;0.50;0.50;;;16.80;63.40;;;;;;5076508;28;20036;-17
2022/03/10 06:07:46;;;;;;;0.80;0.80;;;16.80;63.60;;;;;;5067885;28;20041;-17
2022/03/10 06:10:12;;;;;;;2.17;0.68;;;16.80;63.50;;;;;;5063174;28;20032;-17
2022/03/10 06:12:37;;;;;;;0.75;0.70;;;16.80;63.60;;;;;;5077734;28;20385;-17
2022/03/10 06:15:04;;;;;;;0.68;0.68;;;16.90;63.80;;;;;;5088138;28;20043;-17
2022/03/10 06:17:30;;;;;;;1.05;0.95;;;16.90;64.50;;;;;;5060938;28;20770;-17
2022/03/10 06:19:56;;;;;;;6.97;1.35;;;16.90;66.10;;;;;;5077397;28;20412;-17
2022/03/10 06:22:24;;;;;;;3.95;1.15;;;16.90;66.10;;;;;;5061032;28;20040;-17
2022/03/10 06:24:49;;;;;;;3.70;1.20;;;16.90;65.50;;;;;;5067231;28;20028;-17
2022/03/10 06:27:16;;;;;;;1.92;1.02;;;16.90;65.40;;;;;;4719262;28;10000567;-17
2022/03/10 06:29:41;;;;;;;1.10;1.00;;;16.90;65.40;;;;;;5067898;28;20021;-17
2022/03/10 06:32:07;;;;;;;2.15;1.30;;;16.90;65.00;;;;;;5066934;28;20508;-17
2022/03/10 06:34:33;;;;;;;1.25;1.10;;;16.90;65.10;;;;;;5072565;28;20463;-17
2022/03/10 06:36:58;;;;;;;1.33;1.20;;;16.90;64.90;;;;;;5071288;28;20028;-17
2022/03/10 06:39:25;;;;;;;0.82;0.75;;;16.90;64.90;;;;;;5072472;28;20029;-17
2022/03/10 06:41:50;;;;;;;4.68;3.03;;;16.90;65.20;;;;;;5073289;28;20036;-17
2022/03/10 06:44:16;;;;;;;6.88;3.53;;;17.00;65.10;;;;;;5068913;28;20256;-17
2022/03/10 06:46:42;;;;;;;12.63;4.82;;;17.00;66.30;;;;;;5072968;28;20066;-17
2022/03/10 06:49:07;;;;;;;14.13;5.93;;;16.90;66.40;;;;;;5066160;28;20099;-17
2022/03/10 06:51:33;;;;;;;9.02;5.47;;;17.00;66.50;;;;;;5066954;28;20040;-17
2022/03/10 06:53:58;;;;;;;11.13;4.38;;;17.00;65.80;;;;;;5064906;28;20044;-17
2022/03/10 06:56:25;;;;;;;8.45;4.28;;;16.90;65.80;;;;;;5063782;28;20021;-17
2022/03/10 06:58:50;;;;;;;8.15;3.95;;;16.90;66.10;;;;;;5065499;28;20106;-17
2022/03/10 07:01:16;;;;;;;7.18;3.72;;;16.90;66.30;;;;;;5063762;28;20032;-17
2022/03/10 07:03:42;;;;;;;9.40;4.03;;;16.90;66.10;;;;;;5068711;28;20020;-17
2022/03/10 07:06:08;;;;;;;8.02;4.10;;;16.90;65.70;;;;;;5065520;28;20044;-17
2022/03/10 07:08:34;;;;;;;7.65;3.90;;;16.90;65.80;;;;;;5059171;28;20120;-17
2022/03/10 07:10:59;;;;;;;10.52;4.40;;;16.90;65.60;;;;;;5057033;28;20078;-17
2022/03/10 07:13:25;;;;;;;11.43;4.43;;;17.00;65.60;;;;;;5056563;28;20086;-17
2022/03/10 07:15:51;;;;;;;9.80;4.82;;;16.90;65.50;;;;;;5056686;28;20029;-17
2022/03/10 07:18:16;;;;;;;9.10;4.40;;;17.00;65.50;;;;;;5062610;28;20051;-17
2022/03/10 07:20:42;;;;;;;9.18;4.38;;;17.00;65.50;;;;;;5067049;28;20074;-17
2022/03/10 07:23:07;;;;;;;9.77;4.85;;;17.10;65.10;;;;;;5074160;28;20389;-17
2022/03/10 07:25:33;;;;;;;11.70;4.78;;;17.10;64.90;;;;;;5066901;28;20062;-17
2022/03/10 07:27:58;;;;;;;10.10;5.20;;;17.10;65.20;;;;;;5061250;28;20385;-17
2022/03/10 07:30:24;;;;;;;9.73;4.80;;;17.00;65.10;;;;;;5076477;28;20036;-17
2022/03/10 07:32:50;;;;;;;10.80;5.57;;;17.00;64.80;;;;;;5066241;28;20490;-17
2022/03/10 07:35:15;;;;;;;10.15;5.18;;;17.00;64.90;;;;;;5055947;28;20032;-17
2022/03/10 07:37:41;;;;;;;10.35;5.07;;;17.00;64.90;;;;;;5056051;28;20025;-17
2022/03/10 07:40:07;;;;;;;13.68;6.00;;;17.00;64.90;;;;;;5060947;28;20055;-17
2022/03/10 07:42:32;;;;;;;8.95;4.47;;;17.00;64.80;;;;;;5062985;28;20255;-17
2022/03/10 07:44:58;;;;;;;16.42;4.90;;;17.00;64.80;;;;;;5063382;28;20370;-17
2022/03/10 07:47:23;;;;;;;9.98;5.28;;;17.00;64.70;;;;;;5063217;28;20377;-17
2022/03/10 07:49:49;;;;;;;10.20;4.85;;;17.00;64.50;;;;;;5062764;28;20033;-17
2022/03/10 07:52:15;;;;;;;6.50;4.55;;;17.00;64.60;;;;;;5063112;28;20139;-17
2022/03/10 07:54:41;;;;;;;9.48;5.15;;;17.00;64.40;;;;;;5063170;28;20058;-17
2022/03/10 07:57:06;;;;;;;8.85;4.40;;;17.00;64.40;;;;;;5062678;28;20025;-17
2022/03/10 07:59:32;;;;;;;10.30;4.65;;;17.00;64.40;;;;;;5081906;28;20371;-17
2022/03/10 08:01:57;;;;;;;7.90;4.22;;;17.00;64.20;;;;;;5083500;28;20104;-17
2022/03/10 08:04:23;;;;;;;8.23;4.88;;;17.00;64.20;;;;;;5082421;28;20032;-17
2022/03/10 08:06:49;;;;;;;9.88;5.07;;;17.00;64.30;;;;;;5062997;28;20032;-17
2022/03/10 08:09:14;;;;;;;8.35;4.53;;;17.00;64.30;;;;;;5062878;28;20438;-17
2022/03/10 08:11:40;;;;;;;7.30;4.15;;;17.00;64.20;;;;;;5062978;28;20025;-17
2022/03/10 08:14:06;;;;;;;8.65;4.75;;;17.00;64.30;;;;;;5063075;28;20032;-17
2022/03/10 08:16:32;;;;;;;11.43;5.43;;;17.00;64.30;;;;;;5063161;28;20025;-17
2022/03/10 08:18:59;;;;;;;7.20;4.22;;;17.00;64.20;;;;;;5062724;28;20054;-17
2022/03/10 08:21:25;;;;;;;6.70;4.30;;;17.00;64.20;;;;;;5072617;28;20028;-17
2022/03/10 08:23:51;;;;;;;7.07;4.00;;;17.00;64.20;;;;;;5082976;28;20157;-17
2022/03/10 08:26:17;;;;;;;6.45;4.13;;;17.00;64.30;;;;;;5065917;28;20064;-17
2022/03/10 08:28:43;;;;;;;8.80;4.47;;;16.90;64.40;;;;;;5062925;28;20036;-17
2022/03/10 08:31:10;;;;;;;7.15;4.05;;;16.90;64.40;;;;;;5062818;28;20021;-17
2022/03/10 08:33:36;;;;;;;7.18;4.28;;;16.90;64.30;;;;;;5080267;28;20032;-17
2022/03/10 08:36:03;;;;;;;9.73;4.40;;;17.00;64.30;;;;;;5062839;28;20478;-17
2022/03/10 08:38:30;;;;;;;6.07;4.10;;;16.90;64.20;;;;;;5062449;28;20077;-17
2022/03/10 08:40:55;;;;;;;5.57;3.70;;;17.00;64.20;;;;;;5063117;28;20025;-17
2022/03/10 08:43:23;;;;;;;5.05;3.50;;;16.90;64.30;;;;;;5062627;28;20091;-17
2022/03/10 08:45:49;;;;;;;5.07;3.67;;;16.90;64.30;;;;;;5062889;28;20100;-17
2022/03/10 08:48:15;;;;;;;5.30;4.28;;;16.90;64.30;;;;;;5062627;28;20106;-17
2022/03/10 08:50:41;;;;;;;4.20;3.80;;;16.90;64.40;;;;;;5060899;28;20036;-17
2022/03/10 08:53:07;;;;;;;5.35;3.72;;;16.90;64.20;;;;;;5058743;28;20025;-17
2022/03/10 08:55:33;;;;;;;5.88;3.58;;;16.90;64.20;;;;;;5059619;28;20081;-17
2022/03/10 08:58:00;;;;;;;3.95;3.53;;;16.90;64.20;;;;;;5059481;28;20112;-17
2022/03/10 09:00:26;;;;;;;5.38;3.53;;;16.90;64.30;;;;;;5059549;28;20045;-17
2022/03/10 09:02:51;;;;;;;6.10;3.60;;;16.90;64.20;;;;;;5059088;28;20486;-17
2022/03/10 09:05:17;;;;;;;6.93;4.20;;;16.90;64.20;;;;;;5058982;28;20383;-17
2022/03/10 09:07:43;;;;;;;5.40;3.92;;;16.90;64.20;;;;;;5059237;28;20025;-17
2022/03/10 09:10:10;;;;;;;4.90;3.40;;;16.90;64.30;;;;;;5059115;28;20028;-17
2022/03/10 09:12:35;;;;;;;5.22;3.50;;;16.90;64.30;;;;;;5058913;28;20100;-17
2022/03/10 09:15:01;;;;;;;4.10;3.70;;;16.90;64.80;;;;;;5059089;28;20106;-17
2022/03/10 09:17:26;;;;;;;5.50;3.28;;;16.90;64.20;;;;;;5058790;28;20040;-17
2022/03/10 09:19:53;;;;;;;5.57;3.38;;;16.90;64.30;;;;;;5057248;28;20041;-17
2022/03/10 09:22:20;;;;;;;5.78;3.20;;;16.90;64.30;;;;;;5076565;28;20534;-17
2022/03/10 09:24:46;;;;;;;5.82;3.53;;;16.90;64.30;;;;;;5058267;28;20040;-17
2022/03/10 09:27:11;;;;;;;3.40;3.10;;;16.90;64.40;;;;;;5058466;28;20553;-17
2022/03/10 09:29:37;;;;;;;3.67;3.10;;;16.90;64.30;;;;;;5058757;28;20029;-17
2022/03/10 09:32:03;;;;;;;5.22;3.38;;;16.90;64.30;;;;;;5064028;28;20020;-17
2022/03/10 09:34:28;;;;;;;3.42;3.13;;;16.90;64.20;;;;;;5067443;28;20021;-17
2022/03/10 09:36:54;;;;;;;4.15;3.30;;;16.90;64.20;;;;;;5058510;28;20025;-17
2022/03/10 09:39:20;;;;;;;4.45;3.25;;;16.90;64.20;;;;;;5058378;28;20074;-17
2022/03/10 09:41:45;;;;;;;3.75;2.78;;;16.90;64.20;;;;;;5058490;28;20029;-17
2022/03/10 09:44:16;;;;;;;3.58;2.92;;;16.80;64.30;;;;;;5058424;28;20037;-17
2022/03/10 09:46:42;;;;;;;3.55;2.90;;;16.90;64.30;;;;;;5058657;28;20053;-17
2022/03/10 09:49:08;;;;;;;2.95;2.55;;;16.90;64.30;;;;;;5040463;28;20032;-17
2022/03/10 09:51:33;;;;;;;3.58;2.97;;;16.90;64.20;;;;;;5058045;28;20099;-17
2022/03/10 09:53:59;;;;;;;3.92;3.08;;;16.80;64.20;;;;;;5056824;28;20481;-17
2022/03/10 09:56:24;;;;;;;4.80;2.78;;;16.80;64.20;;;;;;5057033;28;20048;-17
2022/03/10 09:58:50;;;;;;;4.25;3.03;;;16.80;64.30;;;;;;5056882;28;20025;-17
2022/03/10 10:01:16;;;;;;;3.47;2.80;;;16.90;64.30;;;;;;5058149;28;20086;-17
2022/03/10 10:03:41;;;;;;;4.00;3.13;;;16.80;64.20;;;;;;5057503;28;20421;-17
2022/03/10 10:06:07;;;;;;;4.55;3.20;;;16.80;64.30;;;;;;5057776;28;20406;-17
2022/03/10 10:08:34;;;;;;;4.72;2.78;;;16.80;64.20;;;;;;5057967;28;20021;-17
2022/03/10 10:11:00;;;;;;;3.05;2.65;;;16.80;64.20;;;;;;5058129;28;20118;-17
2022/03/10 10:13:43;;;;;;;3.35;2.70;;;16.80;64.20;;;;;;5058027;28;20025;-17
2022/03/10 10:16:13;;;;;;;3.15;2.80;;;16.80;64.20;;;;;;5057981;28;20021;-17
2022/03/10 10:18:39;;;;;;;2.78;2.50;;;16.80;64.10;;;;;;5057797;28;20474;-17
2022/03/10 10:21:06;;;;;;;3.10;2.50;;;16.80;64.10;;;;;;5064434;28;20079;-17
2022/03/10 10:23:35;;;;;;;3.20;2.80;;;16.80;64.10;;;;;;5077843;28;20083;-17
2022/03/10 10:26:09;;;;;;;3.55;2.63;;;16.80;64.10;;;;;;5077742;28;20020;-17
2022/03/10 10:28:38;;;;;;;3.10;2.80;;;16.80;64.10;;;;;;5057716;28;20098;-17
2022/03/10 10:31:07;;;;;;;3.00;2.63;;;16.80;64.10;;;;;;5057491;28;20432;-17
2022/03/10 10:33:34;;;;;;;3.08;2.38;;;16.80;64.10;;;;;;5075303;28;20028;-17
2022/03/10 10:36:14;;;;;;;4.20;2.53;;;16.80;64.20;;;;;;5065989;28;20037;-17
2022/03/10 10:38:40;;;;;;;2.78;2.50;;;16.80;64.10;;;;;;5057332;28;20101;-17
2022/03/10 10:41:25;;;;;;;2.10;1.98;;;16.80;64.10;;;;;;5057477;28;20057;-17
2022/03/10 10:44:01;;;;;;;2.97;2.42;;;16.80;64.10;;;;;;5057604;28;20059;-17
2022/03/10 10:46:40;;;;;;;2.63;2.25;;;16.80;64.20;;;;;;5057362;28;20028;-17
2022/03/10 10:49:17;;;;;;;2.25;2.05;;;16.80;64.10;;;;;;5057268;28;20032;-17
2022/03/10 10:51:48;;;;;;;2.67;2.33;;;16.80;64.20;;;;;;5056648;28;20393;-17
2022/03/10 10:54:20;;;;;;;2.33;2.08;;;16.80;64.10;;;;;;5057216;28;20024;-17
2022/03/10 10:56:53;;;;;;;2.28;2.08;;;16.80;64.10;;;;;;5056786;28;21090;-17
2022/03/10 10:59:37;;;;;;;2.60;2.30;;;16.80;64.20;;;;;;5057047;28;20017;-17
2022/03/10 11:02:15;;;;;;;2.83;2.60;;;16.80;64.00;;;;;;5056544;28;20379;-17
2022/03/10 11:04:47;;;;;;;2.45;1.85;;;16.80;64.00;;;;;;5057014;28;20029;-17
2022/03/10 11:07:13;;;;;;;2.60;2.20;;;16.80;64.00;;;;;;5056764;28;20090;-17
2022/03/10 11:09:41;;;;;;;2.97;2.40;;;16.80;64.10;;;;;;5058192;28;20056;-17
2022/03/10 11:12:09;;;;;;;3.13;2.38;;;16.80;64.10;;;;;;5058934;28;20025;-17
2022/03/10 11:14:35;;;;;;;3.10;2.13;;;16.80;64.00;;;;;;5068987;28;20485;-17
2022/03/10 11:17:01;;;;;;;3.97;2.30;;;16.90;64.20;;;;;;5063200;28;20024;-17
2022/03/10 11:19:26;;;;;;;1.80;1.70;;;16.80;64.00;;;;;;5063084;28;20055;-17
2022/03/10 11:22:08;;;;;;;2.10;1.90;;;16.90;63.80;;;;;;5068121;28;20033;-17
2022/03/10 11:24:53;;;;;;;2.35;2.00;;;16.80;64.00;;;;;;5061328;28;20555;-17
2022/03/10 11:27:19;;;;;;;;;;;16.90;63.90;;;;;;5057177;28;20063;-17
2022/03/10 11:29:49;;;;;;;1.95;1.75;;;16.90;63.70;;;;;;5056853;28;19912;-17
2022/03/10 11:32:15;;;;;;;2.25;2.05;;;16.90;63.80;;;;;;5065475;28;20036;-17
2022/03/10 11:34:43;;;;;;;4.25;2.00;;;16.90;63.80;;;;;;5071056;28;20033;-17
2022/03/10 11:37:12;;;;;;;3.40;2.05;;;16.90;63.90;;;;;;5068136;28;20020;-17
2022/03/10 11:39:54;;;;;;;2.38;1.88;;;16.80;64.00;;;;;;5074370;28;20047;-17
2022/03/10 11:42:27;;;;;;;3.90;2.00;;;16.80;64.30;;;;;;5066934;28;20025;-17
2022/03/10 11:45:18;;;;;;;3.05;1.80;;;16.80;65.00;;;;;;5058113;28;20040;-17
2022/03/10 11:47:44;;;;;;;2.00;1.80;;;16.80;65.00;;;;;;5076542;28;20439;-17
2022/03/10 11:50:22;;;;;;;1.92;1.80;;;16.80;65.00;;;;;;5066721;28;20549;-17
2022/03/10 11:52:52;;;;;;;1.85;1.75;;;16.80;64.90;;;;;;5056621;28;20485;-17
2022/03/10 11:55:18;;;;;;;3.13;1.65;;;16.80;64.90;;;;;;5064030;28;20028;-17
2022/03/10 11:57:55;;;;;;;4.15;2.20;;;16.80;64.90;;;;;;5061821;28;20508;-17
2022/03/10 12:00:48;;;;;;;2.17;2.05;;;16.80;65.20;;;;;;5076218;28;20021;-17
2022/03/10 12:03:36;;;;;;;2.63;1.92;;;16.80;65.30;;;;;;5056347;28;20037;-17
2022/03/10 12:06:14;;;;;;;2.15;1.85;;;16.80;65.50;;;;;;5056147;28;20025;-17
2022/03/10 12:08:40;;;;;;;2.17;1.90;;;16.80;65.70;;;;;;5056165;28;20025;-17
2022/03/10 12:11:13;;;;;;;2.67;1.85;;;16.80;65.80;;;;;;5056379;28;20029;-17
2022/03/10 12:13:46;;;;;;;2.90;1.60;;;16.80;65.70;;;;;;5055910;28;20021;-17
2022/03/10 12:16:34;;;;;;;1.77;1.67;;;16.80;65.70;;;;;;5053834;28;20086;-17
2022/03/10 12:19:00;;;;;;;1.80;1.70;;;16.80;66.20;;;;;;5050904;28;20463;-19
2022/03/10 12:21:29;;;;;;;2.10;1.90;;;16.90;66.20;;;;;;5048831;28;20045;-20
2022/03/10 12:23:56;;;;;;;2.17;1.83;;;16.90;65.80;;;;;;5049378;28;20077;-19
2022/03/10 12:26:26;;;;;;;3.53;1.75;;;17.00;66.20;;;;;;4691036;28;10000233;-19
2022/03/10 12:28:54;;;;;;;1.88;1.77;;;16.90;65.80;;;;;;5048795;28;20519;-19
2022/03/10 12:31:20;;;;;;;1.67;1.58;;;17.00;66.10;;;;;;5049410;28;20487;-19
2022/03/10 12:33:53;;;;;;;7.85;5.32;;;17.00;65.80;;;;;;5047201;28;20037;-19
2022/03/10 12:36:29;;;;;;;7.57;5.13;;;17.00;66.00;;;;;;5050179;28;20040;-19
2022/03/10 12:38:55;;;;;;;13.48;7.20;;;17.00;66.00;;;;;;5041104;28;20218;-19
2022/03/10 12:41:26;;;;;;;13.88;7.60;;;17.00;66.30;;;;;;5049490;28;20041;-19
2022/03/10 12:43:55;;;;;;;11.82;6.20;;;17.10;65.90;;;;;;5060329;28;20139;-20
2022/03/10 12:46:22;;;;;;;13.65;8.27;;;17.10;66.00;;;;;;5067598;28;20032;-20
2022/03/10 12:49:18;;;;;;;15.80;9.43;;;17.10;66.50;;;;;;5069063;28;20037;-20
2022/03/10 12:51:43;;;;;;;15.50;9.35;;;17.10;66.30;;;;;;5068141;28;20405;-19